createdAt,value
2023-04-25T00:00:10.192Z,6.50
2023-04-25T00:04:15.155Z,6.60
2023-04-25T00:08:18.232Z,6.70
2023-04-25T00:12:22.601Z,6.70
2023-04-25T00:16:28.048Z,6.70
2023-04-25T00:20:31.164Z,6.70
2023-04-25T00:24:34.004Z,6.80
2023-04-25T00:28:36.944Z,6.80
2023-04-25T00:32:41.317Z,6.80
2023-04-25T00:36:44.145Z,6.80
2023-04-25T00:40:46.919Z,6.80
2023-04-25T00:44:49.979Z,6.80
2023-04-25T00:48:54.439Z,6.70
2023-04-25T00:52:57.398Z,6.70
2023-04-25T00:57:01.874Z,6.70
2023-04-25T01:01:04.932Z,6.70
2023-04-25T02:09:46.466Z,6.40
2023-04-25T02:13:49.733Z,6.40
2023-04-25T02:18:02.053Z,6.40
2023-04-25T02:22:04.887Z,6.40
2023-04-25T02:26:08.965Z,6.40
2023-04-25T02:30:13.014Z,6.40
2023-04-25T02:34:16.240Z,6.40
2023-04-25T02:38:19.022Z,6.40
2023-04-25T02:42:23.192Z,6.40
2023-04-25T02:46:38.410Z,6.40
2023-04-25T02:50:42.587Z,6.30
2023-04-25T02:54:45.639Z,6.30
2023-04-25T02:58:51.097Z,6.30
2023-04-25T03:02:54.300Z,6.30
2023-04-25T03:06:57.897Z,6.20
2023-04-25T03:11:03.465Z,6.30
2023-04-25T03:15:12.145Z,6.20
2023-04-25T03:19:16.916Z,6.20
2023-04-25T03:23:23.931Z,6.30
2023-04-25T03:27:35.104Z,6.30
2023-04-25T03:31:40.778Z,6.30
2023-04-25T03:35:44.603Z,6.20
2023-04-25T03:39:48.015Z,6.20
2023-04-25T03:48:12.048Z,6.20
2023-04-25T03:52:21.232Z,6.20
2023-04-25T03:56:30.271Z,6.30
2023-04-25T04:00:40.158Z,6.20
2023-04-25T04:04:48.125Z,6.20
2023-04-25T04:08:51.505Z,6.30
2023-04-25T04:13:00.890Z,6.30
2023-04-25T04:17:03.918Z,6.30
2023-04-25T04:21:11.806Z,6.30
2023-04-25T04:25:17.944Z,6.40
2023-04-25T04:29:43.958Z,6.40
2023-04-25T04:34:02.591Z,6.40
2023-04-25T04:38:07.710Z,6.40
2023-04-25T04:42:13.613Z,6.40
2023-04-25T04:46:32.190Z,6.40
2023-04-25T04:51:07.449Z,6.40
2023-04-25T04:55:47.164Z,6.40
2023-04-25T05:00:11.902Z,6.40
2023-04-25T05:04:46.617Z,6.50
2023-04-25T05:09:08.131Z,6.50
2023-04-25T05:13:47.888Z,6.50
2023-04-25T05:18:08.475Z,6.50
2023-04-25T05:22:21.473Z,6.60
2023-04-25T05:26:36.068Z,6.50
2023-04-25T05:30:51.700Z,6.50
2023-04-25T05:34:57.960Z,6.50
2023-04-25T05:39:05.677Z,6.50
2023-04-25T05:43:46.017Z,6.50
2023-04-25T05:48:10.380Z,6.50
2023-04-25T05:52:34.780Z,6.50
2023-04-25T05:56:41.600Z,6.60
2023-04-25T06:00:45.447Z,6.60
2023-04-25T06:04:53.255Z,6.60
2023-04-25T06:08:56.486Z,6.60
2023-04-25T06:13:00.102Z,6.70
2023-04-25T06:17:07.416Z,6.70
2023-04-25T06:21:12.366Z,6.70
2023-04-25T06:25:15.620Z,6.90
2023-04-25T06:29:18.489Z,7.00
2023-04-25T06:33:22.345Z,7.00
2023-04-25T06:37:27.397Z,7.10
2023-04-25T06:41:30.480Z,7.20
2023-04-25T06:45:38.015Z,7.20
2023-04-25T06:49:41.174Z,7.20
2023-04-25T06:53:47.531Z,7.20
2023-04-25T06:58:01.265Z,7.30
2023-04-25T07:02:30.324Z,7.30
2023-04-25T07:06:34.465Z,7.50
2023-04-25T07:10:38.637Z,7.40
2023-04-25T07:14:41.818Z,7.50
2023-04-25T07:18:46.097Z,7.50
2023-04-25T07:22:49.145Z,7.50
2023-04-25T07:26:53.347Z,7.60
2023-04-25T07:31:03.441Z,7.70
2023-04-25T07:35:09.336Z,7.80
2023-04-25T07:39:13.016Z,7.80
2023-04-25T07:43:17.922Z,8.00
2023-04-25T07:47:33.921Z,8.20
2023-04-25T07:51:37.242Z,8.30
2023-04-25T07:55:45.620Z,8.40
2023-04-25T07:59:53.642Z,8.40
2023-04-25T08:03:57.709Z,8.50
2023-04-25T08:08:11.012Z,8.60
2023-04-25T08:12:14.126Z,9.00
2023-04-25T08:16:18.722Z,9.30
2023-04-25T08:20:22.956Z,9.30
2023-04-25T08:24:29.465Z,9.30
2023-04-25T08:32:43.404Z,9.80
2023-04-25T08:37:17.406Z,9.70
2023-04-25T08:41:29.015Z,9.80
2023-04-25T08:45:34.576Z,10.30
2023-04-25T08:49:45.720Z,10.30
2023-04-25T08:54:30.885Z,10.30
2023-04-25T08:58:16.070Z,10.40
2023-04-25T09:02:22.080Z,10.50
2023-04-25T09:06:34.481Z,10.70
2023-04-25T09:10:41.328Z,10.90
2023-04-25T09:14:44.868Z,10.70
2023-04-25T09:19:03.086Z,10.70
2023-04-25T09:23:09.738Z,10.70
2023-04-25T09:27:20.454Z,11.00
2023-04-25T09:31:27.717Z,11.20
2023-04-25T09:35:41.383Z,11.40
2023-04-25T09:39:51.998Z,11.50
2023-04-25T09:44:01.071Z,11.40
2023-04-25T09:48:13.731Z,11.10
2023-04-25T09:52:25.317Z,10.70
2023-04-25T09:56:56.997Z,10.60
2023-04-25T10:01:03.069Z,11.70
2023-04-25T10:05:19.059Z,12.30
2023-04-25T10:09:25.470Z,12.20
2023-04-25T10:13:35.296Z,11.50
2023-04-25T10:17:42.508Z,11.10
2023-04-25T10:21:53.708Z,10.90
2023-04-25T10:25:59.375Z,10.80
2023-04-25T10:30:12.431Z,10.80
2023-04-25T10:38:24.651Z,10.90
2023-04-25T10:42:29.957Z,11.50
2023-04-25T10:46:38.783Z,11.40
2023-04-25T10:50:42.351Z,11.30
2023-04-25T11:00:56.697Z,11.00
2023-04-25T11:05:36.538Z,10.60
2023-04-25T11:25:24.046Z,10.30
2023-04-25T11:29:53.463Z,10.40
2023-04-25T11:33:58.522Z,10.90
2023-04-25T11:38:01.786Z,11.00
2023-04-25T11:42:08.084Z,11.50
2023-04-25T11:46:14.099Z,11.70
2023-04-25T11:50:16.860Z,12.00
2023-04-25T11:54:19.597Z,12.20
2023-04-25T11:58:22.507Z,12.10
2023-04-25T12:02:29.642Z,12.10
2023-04-25T12:06:32.733Z,12.30
2023-04-25T12:10:40.568Z,11.80
2023-04-25T12:15:09.720Z,11.40
2023-04-25T12:19:16.187Z,11.10
2023-04-25T12:23:19.206Z,10.90
2023-04-25T12:27:22.185Z,10.90
2023-04-25T12:31:24.944Z,11.00
2023-04-25T12:35:29.209Z,11.20
2023-04-25T12:39:32.002Z,11.20
2023-04-25T12:43:35.132Z,11.20
2023-04-25T12:47:38.174Z,11.10
2023-04-25T12:51:42.447Z,11.10
2023-04-25T12:55:46.902Z,11.10
2023-04-25T12:59:49.647Z,11.50
2023-04-25T13:03:53.000Z,11.60
2023-04-25T13:07:57.156Z,12.20
2023-04-25T13:12:00.054Z,12.30
2023-04-25T13:16:02.978Z,12.30
2023-04-25T13:20:09.552Z,12.20
2023-04-25T13:24:13.929Z,12.00
2023-04-25T13:28:16.964Z,12.10
2023-04-25T13:32:19.727Z,12.30
2023-04-25T13:36:22.626Z,12.20
2023-04-25T13:40:27.783Z,12.10
2023-04-25T13:44:30.675Z,12.20
2023-04-25T13:48:33.883Z,12.00
2023-04-25T13:52:38.837Z,11.90
2023-04-25T13:56:43.565Z,12.20
2023-04-25T14:00:47.689Z,12.30
2023-04-25T14:04:50.551Z,12.20
2023-04-25T14:08:53.334Z,11.90
2023-04-25T14:12:57.436Z,11.90
2023-04-25T14:17:00.175Z,12.00
2023-04-25T14:21:02.901Z,12.30
2023-04-25T14:25:06.682Z,12.60
2023-04-25T14:29:12.714Z,13.00
2023-04-25T14:33:15.903Z,13.50
2023-04-25T14:37:18.723Z,13.40
2023-04-25T14:41:22.240Z,13.10
2023-04-25T14:45:26.777Z,13.00
2023-04-25T14:49:29.953Z,12.30
2023-04-25T14:53:33.404Z,12.00
2023-04-25T14:57:38.943Z,11.70
2023-04-25T15:01:43.159Z,11.50
2023-04-25T15:05:46.180Z,11.30
2023-04-25T15:09:49.735Z,11.00
2023-04-25T15:13:52.918Z,10.70
2023-04-25T15:17:59.251Z,10.40
2023-04-25T15:22:02.455Z,10.10
2023-04-25T15:26:05.528Z,10.00
2023-04-25T15:30:11.775Z,9.90
2023-04-25T15:34:15.851Z,9.80
2023-04-25T15:38:18.691Z,9.70
2023-04-25T15:42:21.478Z,9.70
2023-04-25T15:46:24.317Z,9.70
2023-04-25T15:50:28.469Z,10.00
2023-04-25T15:54:31.284Z,10.80
2023-04-25T15:58:34.265Z,11.50
2023-04-25T16:02:37.480Z,12.10
2023-04-25T16:06:42.438Z,12.70
2023-04-25T16:10:45.221Z,13.10
2023-04-25T16:14:48.219Z,13.10
2023-04-25T16:18:51.075Z,12.90
2023-04-25T16:22:55.852Z,12.40
2023-04-25T16:26:59.026Z,12.10
2023-04-25T16:31:02.062Z,11.80
2023-04-25T16:35:05.099Z,11.30
2023-04-25T16:39:09.628Z,11.00
2023-04-25T16:43:12.495Z,10.70
2023-04-25T16:47:19.481Z,10.40
2023-04-25T16:51:22.941Z,10.20
2023-04-25T16:55:27.063Z,9.70
2023-04-25T16:59:29.829Z,9.40
2023-04-25T17:03:34.846Z,9.10
2023-04-25T17:07:38.347Z,9.00
2023-04-25T17:11:42.496Z,8.80
2023-04-25T17:15:45.358Z,8.70
2023-04-25T17:19:48.456Z,8.60
2023-04-25T17:23:51.437Z,8.70
2023-04-25T17:27:55.784Z,8.80
2023-04-25T17:31:59.028Z,8.80
2023-04-25T17:36:04.423Z,8.80
2023-04-25T17:40:11.932Z,8.80
2023-04-25T17:44:16.143Z,8.80
2023-04-25T17:48:19.213Z,8.70
2023-04-25T17:52:23.088Z,8.60
2023-04-25T17:56:27.503Z,8.50
2023-04-25T18:00:36.401Z,8.50
2023-04-25T18:04:39.488Z,8.50
2023-04-25T18:08:42.454Z,8.50
2023-04-25T18:12:45.532Z,8.50
2023-04-25T18:16:51.610Z,8.50
2023-04-25T18:20:54.993Z,8.30
2023-04-25T18:24:57.735Z,8.20
2023-04-25T18:29:01.450Z,8.00
2023-04-25T18:33:05.837Z,7.80
2023-04-25T18:37:08.850Z,7.60
2023-04-25T18:45:19.120Z,7.30
2023-04-25T18:49:24.176Z,7.20
2023-04-25T18:53:27.790Z,7.10
2023-04-25T18:57:30.854Z,7.10
2023-04-25T19:01:34.351Z,7.10
2023-04-25T19:05:39.148Z,7.10
2023-04-25T19:09:42.448Z,7.00
2023-04-25T19:13:46.032Z,7.10
2023-04-25T19:17:49.070Z,7.00
2023-04-25T19:21:54.104Z,6.70
2023-04-25T19:25:57.150Z,6.60
2023-04-25T19:30:07.957Z,6.50
2023-04-25T19:34:16.083Z,6.40
2023-04-25T19:38:24.704Z,6.20
2023-04-25T19:42:27.722Z,6.10
2023-04-25T19:46:31.158Z,6.10
2023-04-25T19:50:34.547Z,6.20
2023-04-25T19:54:38.872Z,6.30
2023-04-25T19:58:46.368Z,6.30
2023-04-25T20:03:01.201Z,6.40
2023-04-25T20:07:14.648Z,6.40
2023-04-25T20:11:23.188Z,6.40
2023-04-25T20:15:26.287Z,6.40
2023-04-25T20:19:29.049Z,6.40
2023-04-25T20:23:31.898Z,6.20
2023-04-25T20:27:37.802Z,6.20
2023-04-25T20:31:40.705Z,6.10
2023-04-25T20:35:43.917Z,6.10
2023-04-25T20:39:46.859Z,6.10
2023-04-25T20:43:53.155Z,6.00
2023-04-25T20:47:56.146Z,6.00
2023-04-25T20:51:59.133Z,6.00
2023-04-25T20:56:02.657Z,5.90
2023-04-25T21:00:17.254Z,5.80
2023-04-25T21:04:27.466Z,5.70
2023-04-25T21:08:33.128Z,5.80
2023-04-25T21:12:36.164Z,5.70
2023-04-25T21:16:49.805Z,5.70
2023-04-25T21:20:53.101Z,5.70
2023-04-25T21:24:57.444Z,5.60
2023-04-25T21:29:00.214Z,5.60
2023-04-25T21:33:04.907Z,5.60
2023-04-25T21:37:07.740Z,5.50
2023-04-25T21:41:10.540Z,5.40
2023-04-25T21:45:13.467Z,5.40
2023-04-25T21:49:17.528Z,5.30
2023-04-25T21:53:20.322Z,5.30
2023-04-25T21:57:23.276Z,5.20
2023-04-25T22:01:26.823Z,5.10
2023-04-25T22:05:31.236Z,5.00
2023-04-25T22:09:43.854Z,4.90
2023-04-25T22:13:54.481Z,4.90
2023-04-25T22:17:57.785Z,4.90
2023-04-25T22:22:02.572Z,4.80
2023-04-25T22:26:06.106Z,4.80
2023-04-25T22:30:10.289Z,4.70
2023-04-25T22:34:13.810Z,4.60
2023-04-25T22:38:18.005Z,4.60
2023-04-25T22:42:20.745Z,4.50
2023-04-25T22:46:23.667Z,4.50
2023-04-25T22:50:27.118Z,4.40
2023-04-25T22:54:31.233Z,4.30
2023-04-25T22:58:34.048Z,4.30
2023-04-25T23:02:37.109Z,4.20
2023-04-25T23:06:40.503Z,4.20
2023-04-25T23:10:44.613Z,4.30
2023-04-25T23:14:50.227Z,4.40
2023-04-25T23:18:53.382Z,4.50
2023-04-25T23:22:56.799Z,4.50
2023-04-25T23:27:01.832Z,4.60
2023-04-25T23:31:06.009Z,4.60
2023-04-25T23:35:09.993Z,4.50
2023-04-25T23:39:14.160Z,4.50
2023-04-25T23:43:28.012Z,4.40
2023-04-25T23:47:37.601Z,4.30
2023-04-25T23:51:41.063Z,4.30
2023-04-25T23:55:44.176Z,4.20
2023-04-25T23:59:49.818Z,4.10
